createdAt,value
2022-11-16T00:01:57.306Z,8.30
2022-11-16T00:04:25.421Z,8.90
2022-11-16T00:06:53.600Z,8.20
2022-11-16T00:09:26.979Z,9.07
2022-11-16T00:11:58.662Z,7.50
2022-11-16T00:14:28.985Z,6.63
2022-11-16T00:16:57.752Z,8.37
2022-11-16T00:19:26.849Z,7.13
2022-11-16T00:21:55.462Z,8.20
2022-11-16T00:24:24.633Z,7.67
2022-11-16T00:26:56.260Z,7.37
2022-11-16T00:29:26.049Z,7.90
2022-11-16T00:31:55.444Z,8.60
2022-11-16T00:34:24.478Z,8.17
2022-11-16T00:36:53.391Z,7.77
2022-11-16T00:39:21.801Z,11.93
2022-11-16T00:41:50.597Z,7.33
2022-11-16T00:44:20.255Z,8.43
2022-11-16T00:46:48.666Z,7.47
2022-11-16T00:49:16.736Z,8.20
2022-11-16T00:51:44.802Z,8.17
2022-11-16T00:54:12.946Z,7.27
2022-11-16T00:56:41.850Z,8.10
2022-11-16T00:59:09.961Z,7.67
2022-11-16T01:01:39.519Z,8.57
2022-11-16T01:04:08.119Z,8.27
2022-11-16T01:06:37.469Z,7.87
2022-11-16T01:09:05.568Z,8.10
2022-11-16T01:11:51.333Z,8.37
2022-11-16T01:14:19.422Z,8.30
2022-11-16T01:16:50.629Z,7.90
2022-11-16T01:19:18.905Z,8.00
2022-11-16T01:21:47.095Z,8.03
2022-11-16T01:24:15.210Z,8.90
2022-11-16T01:26:43.776Z,8.53
2022-11-16T01:29:11.968Z,8.30
2022-11-16T01:31:44.322Z,8.70
2022-11-16T01:34:13.825Z,7.23
2022-11-16T01:36:41.840Z,8.53
2022-11-16T01:39:12.238Z,9.17
2022-11-16T01:41:48.967Z,9.00
2022-11-16T01:44:54.682Z,8.20
2022-11-16T01:47:22.877Z,9.07
2022-11-16T01:49:55.090Z,9.90
2022-11-16T01:52:32.552Z,9.53
2022-11-16T01:55:02.132Z,9.40
2022-11-16T01:57:43.204Z,7.90
2022-11-16T02:00:14.400Z,8.77
2022-11-16T02:02:46.498Z,8.47
2022-11-16T02:05:40.244Z,9.10
2022-11-16T02:08:43.816Z,9.43
2022-11-16T02:11:33.494Z,9.40
2022-11-16T02:14:16.647Z,8.67
2022-11-16T02:16:51.849Z,10.07
2022-11-16T02:19:49.896Z,9.17
2022-11-16T02:22:28.338Z,9.53
2022-11-16T02:25:04.418Z,8.43
2022-11-16T02:27:55.507Z,8.43
2022-11-16T02:30:25.816Z,9.70
2022-11-16T02:33:01.526Z,9.30
2022-11-16T02:35:33.440Z,10.07
2022-11-16T02:38:11.921Z,8.40
2022-11-16T02:40:44.012Z,10.30
2022-11-16T02:43:16.565Z,9.63
2022-11-16T02:45:50.679Z,10.57
2022-11-16T02:48:23.663Z,9.23
2022-11-16T02:50:54.236Z,9.37
2022-11-16T02:53:23.308Z,10.37
2022-11-16T02:55:52.689Z,9.47
2022-11-16T02:58:23.636Z,9.80
2022-11-16T03:01:00.607Z,10.30
2022-11-16T03:03:36.107Z,10.47
2022-11-16T03:06:08.734Z,10.10
2022-11-16T03:08:42.723Z,9.70
2022-11-16T03:11:29.676Z,9.33
2022-11-16T03:14:04.007Z,9.10
2022-11-16T03:16:39.236Z,10.20
2022-11-16T03:19:11.598Z,9.37
2022-11-16T03:21:45.463Z,10.57
2022-11-16T03:24:14.671Z,10.30
2022-11-16T03:26:56.861Z,10.03
2022-11-16T03:29:31.076Z,9.97
2022-11-16T03:32:10.194Z,11.20
2022-11-16T03:34:42.736Z,10.73
2022-11-16T03:37:12.255Z,12.10
2022-11-16T03:39:42.051Z,10.90
2022-11-16T03:42:14.712Z,10.83
2022-11-16T03:44:46.861Z,11.67
2022-11-16T03:47:16.710Z,11.17
2022-11-16T03:49:48.629Z,12.20
2022-11-16T03:52:20.119Z,11.90
2022-11-16T03:54:50.183Z,13.10
2022-11-16T03:57:18.965Z,11.67
2022-11-16T03:59:53.587Z,12.77
2022-11-16T04:02:23.066Z,12.47
2022-11-16T04:05:10.583Z,12.90
2022-11-16T04:07:55.944Z,13.10
2022-11-16T04:10:42.055Z,13.37
2022-11-16T04:13:29.809Z,13.80
2022-11-16T04:16:15.173Z,13.20
2022-11-16T04:19:03.930Z,13.37
2022-11-16T04:21:55.219Z,14.37
2022-11-16T04:24:30.077Z,13.77
2022-11-16T04:27:19.930Z,15.13
2022-11-16T04:29:48.491Z,15.47
2022-11-16T04:32:34.813Z,13.73
2022-11-16T04:35:22.042Z,14.07
2022-11-16T04:37:50.418Z,14.37
2022-11-16T04:40:29.408Z,15.70
2022-11-16T04:43:00.047Z,15.17
2022-11-16T04:45:50.163Z,14.00
2022-11-16T04:48:21.686Z,15.33
2022-11-16T04:50:54.989Z,15.83
2022-11-16T04:53:26.989Z,15.07
2022-11-16T04:56:05.819Z,16.33
2022-11-16T04:58:35.137Z,16.33
2022-11-16T05:01:04.090Z,16.13
2022-11-16T05:03:32.399Z,17.57
2022-11-16T05:06:02.926Z,17.67
2022-11-16T05:08:31.587Z,16.70
2022-11-16T05:11:01.054Z,18.47
2022-11-16T05:13:29.868Z,18.13
2022-11-16T05:15:58.423Z,17.23
2022-11-16T05:18:27.411Z,18.83
2022-11-16T05:21:00.428Z,19.50
2022-11-16T05:23:49.699Z,18.30
2022-11-16T05:26:21.212Z,18.80
2022-11-16T05:28:49.988Z,19.83
2022-11-16T05:31:18.180Z,20.87
2022-11-16T05:33:46.243Z,21.60
2022-11-16T05:36:15.918Z,20.43
2022-11-16T05:38:45.417Z,21.40
2022-11-16T05:41:13.545Z,20.77
2022-11-16T05:43:41.717Z,20.80
2022-11-16T05:46:15.709Z,20.97
2022-11-16T05:48:44.638Z,20.70
2022-11-16T05:51:13.794Z,21.60
2022-11-16T05:53:42.642Z,21.10
2022-11-16T05:56:14.281Z,22.97
2022-11-16T05:58:43.678Z,21.63
2022-11-16T06:01:11.752Z,23.63
2022-11-16T06:03:39.904Z,22.43
2022-11-16T06:06:09.104Z,22.67
2022-11-16T06:08:37.761Z,23.00
2022-11-16T06:11:11.275Z,24.10
2022-11-16T06:13:42.157Z,22.87
2022-11-16T06:16:10.932Z,24.13
2022-11-16T06:18:40.166Z,23.50
2022-11-16T06:21:10.488Z,24.63
2022-11-16T06:23:39.109Z,25.17
2022-11-16T06:26:07.871Z,25.17
2022-11-16T06:28:37.529Z,25.67
2022-11-16T06:31:07.588Z,25.43
2022-11-16T06:33:40.846Z,28.03
2022-11-16T06:36:16.173Z,29.73
2022-11-16T06:38:45.243Z,26.90
2022-11-16T06:41:14.620Z,25.87
2022-11-16T06:43:46.769Z,26.90
2022-11-16T06:46:18.825Z,28.43
2022-11-16T06:48:46.892Z,28.63
2022-11-16T06:51:15.709Z,28.70
2022-11-16T06:53:44.382Z,27.83
2022-11-16T06:56:14.961Z,29.53
2022-11-16T06:58:52.995Z,30.20
2022-11-16T07:01:23.245Z,30.97
2022-11-16T07:03:55.640Z,29.97
2022-11-16T07:06:23.814Z,30.00
2022-11-16T07:08:52.013Z,30.57
2022-11-16T07:11:25.643Z,31.20
2022-11-16T07:13:53.882Z,31.83
2022-11-16T07:16:23.919Z,30.50
2022-11-16T07:18:59.150Z,30.40
2022-11-16T07:21:30.040Z,30.53
2022-11-16T07:24:00.255Z,31.23
2022-11-16T07:26:28.878Z,32.77
2022-11-16T07:29:05.135Z,33.63
2022-11-16T07:31:36.415Z,32.77
2022-11-16T07:34:27.820Z,32.67
2022-11-16T07:37:08.740Z,32.43
2022-11-16T07:39:37.025Z,34.87
2022-11-16T07:42:11.522Z,34.90
2022-11-16T07:44:57.974Z,37.07
2022-11-16T07:47:27.612Z,33.17
2022-11-16T07:49:56.353Z,41.40
2022-11-16T07:52:28.087Z,33.47
2022-11-16T07:54:58.591Z,33.83
2022-11-16T07:57:28.882Z,32.87
2022-11-16T08:00:00.708Z,35.47
2022-11-16T08:02:31.830Z,34.40
2022-11-16T08:05:00.808Z,35.23
2022-11-16T08:07:30.302Z,35.27
2022-11-16T08:09:58.468Z,35.93
2022-11-16T08:12:26.737Z,33.23
2022-11-16T08:14:56.279Z,34.93
2022-11-16T08:17:25.026Z,34.67
2022-11-16T08:19:55.445Z,39.43
2022-11-16T08:22:23.849Z,37.00
2022-11-16T08:24:51.990Z,34.87
2022-11-16T08:27:20.180Z,37.37
2022-11-16T08:29:52.638Z,37.77
2022-11-16T08:32:20.758Z,36.33
2022-11-16T08:34:48.876Z,35.27
2022-11-16T08:37:18.783Z,38.40
2022-11-16T08:39:48.543Z,40.57
2022-11-16T08:42:17.206Z,36.40
2022-11-16T08:44:48.649Z,39.77
2022-11-16T08:47:20.455Z,37.17
2022-11-16T08:49:52.781Z,34.30
2022-11-16T08:52:23.895Z,33.83
2022-11-16T08:54:54.223Z,34.27
2022-11-16T08:57:22.940Z,33.30
2022-11-16T08:59:56.180Z,32.70
2022-11-16T09:02:25.504Z,33.33
2022-11-16T09:04:54.092Z,35.70
2022-11-16T09:07:23.654Z,33.93
2022-11-16T09:09:51.768Z,33.43
2022-11-16T09:12:19.938Z,36.30
2022-11-16T09:14:48.122Z,34.77
2022-11-16T09:17:21.746Z,35.73
2022-11-16T09:19:51.213Z,32.90
2022-11-16T09:22:19.323Z,34.30
2022-11-16T09:24:48.831Z,34.30
2022-11-16T09:27:16.964Z,33.67
2022-11-16T09:29:44.976Z,33.57
2022-11-16T09:32:13.045Z,32.10
2022-11-16T09:34:41.102Z,33.30
2022-11-16T09:37:09.180Z,34.50
2022-11-16T09:39:37.244Z,33.60
2022-11-16T09:42:22.364Z,32.43
2022-11-16T09:45:00.443Z,33.50
2022-11-16T09:47:40.929Z,41.10
2022-11-16T09:50:16.608Z,36.63
2022-11-16T09:52:49.096Z,33.60
2022-11-16T09:55:25.448Z,32.97
2022-11-16T09:57:58.191Z,34.40
2022-11-16T10:00:26.668Z,33.77
2022-11-16T10:03:03.592Z,34.80
2022-11-16T10:05:37.513Z,32.57
2022-11-16T10:08:13.792Z,40.37
2022-11-16T10:10:50.925Z,37.67
2022-11-16T10:13:32.823Z,34.93
2022-11-16T10:16:09.480Z,34.30
2022-11-16T10:18:49.713Z,36.80
2022-11-16T10:21:33.045Z,34.57
2022-11-16T10:24:26.215Z,33.00
2022-11-16T10:27:06.125Z,33.77
2022-11-16T10:29:57.223Z,34.13
2022-11-16T10:32:29.820Z,33.47
2022-11-16T10:35:02.916Z,33.43
2022-11-16T10:37:32.965Z,37.40
2022-11-16T10:40:03.448Z,41.90
2022-11-16T10:42:36.022Z,35.17
2022-11-16T10:45:18.488Z,33.27
2022-11-16T10:47:53.140Z,33.83
2022-11-16T10:50:32.922Z,33.27
2022-11-16T10:53:01.724Z,33.40
2022-11-16T10:55:30.011Z,33.47
2022-11-16T10:58:00.486Z,38.70
2022-11-16T11:00:45.226Z,40.10
2022-11-16T11:03:13.444Z,34.83
2022-11-16T11:05:51.532Z,34.50
2022-11-16T11:08:27.799Z,33.80
2022-11-16T11:11:03.220Z,34.50
2022-11-16T11:13:34.699Z,33.50
2022-11-16T11:16:18.595Z,35.20
2022-11-16T11:18:46.627Z,35.73
2022-11-16T11:21:19.808Z,34.77
2022-11-16T11:23:50.744Z,34.50
2022-11-16T11:26:42.001Z,34.23
2022-11-16T11:29:25.009Z,34.40
2022-11-16T11:31:58.180Z,35.03
2022-11-16T11:34:30.156Z,33.50
2022-11-16T11:37:01.372Z,34.67
2022-11-16T11:39:32.303Z,32.67
2022-11-16T11:42:06.772Z,36.63
2022-11-16T11:44:43.621Z,32.17
2022-11-16T11:50:20.191Z,34.60
2022-11-16T11:53:03.322Z,35.40
2022-11-16T11:55:31.644Z,33.37
2022-11-16T11:58:01.593Z,33.17
2022-11-16T12:00:37.608Z,33.73
2022-11-16T12:03:53.936Z,33.77
2022-11-16T12:06:31.097Z,34.77
2022-11-16T12:09:20.608Z,33.77
2022-11-16T12:12:05.975Z,34.30
2022-11-16T12:14:50.391Z,35.37
2022-11-16T12:17:27.072Z,32.70
2022-11-16T12:20:25.807Z,32.03
2022-11-16T12:23:29.273Z,43.27
2022-11-16T12:26:08.148Z,33.53
2022-11-16T12:28:51.103Z,32.23
2022-11-16T12:31:45.000Z,33.60
2022-11-16T12:34:20.980Z,31.83
2022-11-16T12:36:58.053Z,31.20
2022-11-16T12:39:31.691Z,31.07
2022-11-16T12:42:39.220Z,32.00
2022-11-16T12:45:32.281Z,32.53
2022-11-16T12:48:22.075Z,31.53
2022-11-16T12:50:55.837Z,32.50
2022-11-16T12:53:47.697Z,32.27
2022-11-16T12:56:25.558Z,33.03
2022-11-16T12:59:20.335Z,31.90
2022-11-16T13:02:00.420Z,31.43
2022-11-16T13:04:34.731Z,30.30
2022-11-16T13:07:10.856Z,36.03
2022-11-16T13:09:43.166Z,31.73
2022-11-16T13:12:17.067Z,29.20
2022-11-16T13:14:49.635Z,30.40
2022-11-16T13:17:21.902Z,30.07
2022-11-16T13:20:15.434Z,28.40
2022-11-16T13:22:51.648Z,29.10
2022-11-16T13:25:26.087Z,28.27
2022-11-16T13:27:58.549Z,27.00
2022-11-16T13:30:34.646Z,25.20
2022-11-16T13:33:20.952Z,25.07
2022-11-16T13:35:49.331Z,26.07
2022-11-16T13:38:53.188Z,25.50
2022-11-16T13:41:28.484Z,26.30
2022-11-16T13:43:56.985Z,22.07
2022-11-16T13:46:55.309Z,25.10
2022-11-16T13:49:32.098Z,22.77
2022-11-16T13:52:17.169Z,23.57
2022-11-16T13:54:53.911Z,23.63
2022-11-16T13:57:25.671Z,24.70
2022-11-16T14:00:10.177Z,22.30
2022-11-16T14:02:41.443Z,25.90
2022-11-16T14:05:17.498Z,24.27
2022-11-16T14:07:49.529Z,26.10
2022-11-16T14:10:51.039Z,24.87
2022-11-16T14:13:38.307Z,25.77
2022-11-16T14:16:55.662Z,26.90
2022-11-16T14:19:55.327Z,25.53
2022-11-16T14:22:46.675Z,25.87
2022-11-16T14:25:34.713Z,26.23
2022-11-16T14:28:32.509Z,27.67
2022-11-16T14:31:13.932Z,25.83
2022-11-16T14:33:42.273Z,24.67
2022-11-16T14:36:12.188Z,25.00
2022-11-16T14:38:42.891Z,25.10
2022-11-16T14:41:21.048Z,25.30
2022-11-16T14:43:52.815Z,23.93
2022-11-16T14:46:25.992Z,23.67
2022-11-16T14:48:57.210Z,25.90
2022-11-16T14:51:31.831Z,25.73
2022-11-16T14:54:04.730Z,25.90
2022-11-16T14:56:32.940Z,23.93
2022-11-16T14:59:02.498Z,26.30
2022-11-16T15:01:33.016Z,25.13
2022-11-16T15:04:04.332Z,25.67
2022-11-16T15:06:41.158Z,27.43
2022-11-16T15:09:15.603Z,24.33
2022-11-16T15:12:01.837Z,25.30
2022-11-16T15:14:33.036Z,26.33
2022-11-16T15:17:01.740Z,28.87
2022-11-16T15:19:31.882Z,22.60
2022-11-16T15:22:04.181Z,22.70
2022-11-16T15:24:33.946Z,22.87
2022-11-16T15:27:20.044Z,21.13
2022-11-16T15:29:48.822Z,21.83
2022-11-16T15:32:18.427Z,21.53
2022-11-16T15:34:50.926Z,21.00
2022-11-16T15:37:29.830Z,21.03
2022-11-16T15:40:00.092Z,21.00
2022-11-16T15:42:29.318Z,23.17
2022-11-16T15:44:59.889Z,19.87
2022-11-16T15:47:28.943Z,18.77
2022-11-16T15:49:57.061Z,20.93
2022-11-16T15:52:46.461Z,19.33
2022-11-16T15:55:27.671Z,18.50
2022-11-16T15:58:15.034Z,18.27
2022-11-16T16:00:43.715Z,16.87
2022-11-16T16:03:22.866Z,17.47
2022-11-16T16:05:51.983Z,18.23
2022-11-16T16:08:31.434Z,17.50
2022-11-16T16:11:10.215Z,17.10
2022-11-16T16:13:40.510Z,16.80
2022-11-16T16:16:24.020Z,16.73
2022-11-16T16:18:54.040Z,16.30
2022-11-16T16:21:22.762Z,17.57
2022-11-16T16:23:53.786Z,22.87
2022-11-16T16:26:23.028Z,19.63
2022-11-16T16:28:51.702Z,18.33
2022-11-16T16:31:21.105Z,17.93
2022-11-16T16:33:49.816Z,18.50
2022-11-16T16:36:17.886Z,18.27
2022-11-16T16:38:46.016Z,18.57
2022-11-16T16:41:24.309Z,19.17
2022-11-16T16:43:53.141Z,18.63
2022-11-16T16:46:21.748Z,19.43
2022-11-16T16:48:49.927Z,19.17
2022-11-16T16:51:18.027Z,19.47
2022-11-16T16:53:46.045Z,19.07
2022-11-16T16:56:19.232Z,20.10
2022-11-16T16:58:47.307Z,21.17
2022-11-16T17:01:15.701Z,20.83
2022-11-16T17:03:43.815Z,19.17
2022-11-16T17:06:12.006Z,18.43
2022-11-16T17:08:40.078Z,26.00
2022-11-16T17:11:09.038Z,19.00
2022-11-16T17:13:38.494Z,19.00
2022-11-16T17:16:07.061Z,18.30
2022-11-16T17:18:35.166Z,19.47
2022-11-16T17:21:06.955Z,19.90
2022-11-16T17:23:35.737Z,18.70
2022-11-16T17:26:05.928Z,18.80
2022-11-16T17:28:34.262Z,17.93
2022-11-16T17:31:05.015Z,17.50
2022-11-16T17:33:35.378Z,18.53
2022-11-16T17:36:04.095Z,18.53
2022-11-16T17:38:32.250Z,18.77
2022-11-16T17:41:08.041Z,17.40
2022-11-16T17:43:36.896Z,19.50
2022-11-16T17:46:08.851Z,16.93
2022-11-16T17:48:38.058Z,17.60
2022-11-16T17:51:07.149Z,17.10
2022-11-16T17:53:36.449Z,17.30
2022-11-16T17:56:05.487Z,17.27
2022-11-16T17:58:34.510Z,19.07
2022-11-16T18:01:02.721Z,17.27
2022-11-16T18:03:32.766Z,17.80
2022-11-16T18:06:06.008Z,16.43
2022-11-16T18:08:34.695Z,17.83
2022-11-16T18:11:06.973Z,16.27
2022-11-16T18:13:36.527Z,15.50
2022-11-16T18:16:06.836Z,26.73
2022-11-16T18:18:36.766Z,17.63
2022-11-16T18:21:05.370Z,15.17
2022-11-16T18:23:34.784Z,14.80
2022-11-16T18:26:07.750Z,15.87
2022-11-16T18:28:35.916Z,14.87
2022-11-16T18:31:05.084Z,15.60
2022-11-16T18:33:33.914Z,14.53
2022-11-16T18:36:03.919Z,13.90
2022-11-16T18:38:32.466Z,14.80
2022-11-16T18:41:05.348Z,15.03
2022-11-16T18:43:34.584Z,14.30
2022-11-16T18:46:03.001Z,13.00
2022-11-16T18:48:31.193Z,13.93
2022-11-16T18:50:59.893Z,13.63
2022-11-16T18:53:30.385Z,13.80
2022-11-16T18:55:58.627Z,14.40
2022-11-16T19:01:17.540Z,14.27
2022-11-16T19:03:45.950Z,14.03
2022-11-16T19:06:14.895Z,14.10
2022-11-16T19:08:47.841Z,13.30
2022-11-16T19:11:20.254Z,13.07
2022-11-16T19:13:54.211Z,10.53
2022-11-16T19:16:22.927Z,11.77
2022-11-16T19:18:51.108Z,17.70
2022-11-16T19:21:19.802Z,12.07
2022-11-16T19:23:50.683Z,11.57
2022-11-16T19:26:20.664Z,12.00
2022-11-16T19:28:50.675Z,11.60
2022-11-16T19:31:20.599Z,12.23
2022-11-16T19:33:49.346Z,10.80
2022-11-16T19:36:18.943Z,11.93
2022-11-16T19:38:49.601Z,12.10
2022-11-16T19:41:20.288Z,10.67
2022-11-16T19:43:49.126Z,10.67
2022-11-16T19:46:17.981Z,10.63
2022-11-16T19:48:47.174Z,10.90
2022-11-16T19:51:17.415Z,12.23
2022-11-16T19:53:45.874Z,11.07
2022-11-16T19:56:16.987Z,11.80
2022-11-16T19:58:45.716Z,11.30
2022-11-16T20:01:16.054Z,11.73
2022-11-16T20:03:48.585Z,11.67
2022-11-16T20:06:18.748Z,9.50
2022-11-16T20:08:49.959Z,8.97
2022-11-16T20:11:20.904Z,8.83
2022-11-16T20:13:49.620Z,8.97
2022-11-16T20:16:18.987Z,7.93
2022-11-16T20:18:47.960Z,7.80
2022-11-16T20:21:20.485Z,8.97
2022-11-16T20:23:48.865Z,8.50
2022-11-16T20:26:17.106Z,9.50
2022-11-16T20:28:47.688Z,7.33
2022-11-16T20:31:18.256Z,7.87
2022-11-16T20:33:52.090Z,8.13
2022-11-16T20:36:21.079Z,7.60
2022-11-16T20:38:49.212Z,7.93
2022-11-16T20:41:18.794Z,7.83
2022-11-16T20:43:50.948Z,7.30
2022-11-16T20:46:20.417Z,6.63
2022-11-16T20:48:49.159Z,6.50
2022-11-16T20:51:19.966Z,6.13
2022-11-16T20:53:49.392Z,6.43
2022-11-16T20:56:19.165Z,6.20
2022-11-16T20:58:49.635Z,8.20
2022-11-16T21:01:19.727Z,6.70
2022-11-16T21:03:48.097Z,6.70
2022-11-16T21:06:16.560Z,7.07
2022-11-16T21:08:44.660Z,7.43
2022-11-16T21:11:13.847Z,6.57
2022-11-16T21:13:59.448Z,7.47
2022-11-16T21:16:29.148Z,7.60
2022-11-16T21:18:57.272Z,6.80
2022-11-16T21:21:26.455Z,6.60
2022-11-16T21:23:55.149Z,7.27
2022-11-16T21:26:25.305Z,6.80
2022-11-16T21:28:53.812Z,7.23
2022-11-16T21:31:25.462Z,6.50
2022-11-16T21:33:55.921Z,7.70
2022-11-16T21:36:25.319Z,6.93
2022-11-16T21:38:54.611Z,7.10
2022-11-16T21:41:25.153Z,6.90
2022-11-16T21:43:53.516Z,7.33
2022-11-16T21:46:23.234Z,6.60
2022-11-16T21:48:52.784Z,9.33
2022-11-16T21:51:24.836Z,8.27
2022-11-16T21:53:53.384Z,7.60
2022-11-16T21:56:23.504Z,8.03
2022-11-16T21:58:52.892Z,5.90
2022-11-16T22:01:22.246Z,7.70
2022-11-16T22:04:11.493Z,7.87
2022-11-16T22:06:58.759Z,7.43
2022-11-16T22:09:26.937Z,7.67
2022-11-16T22:11:55.388Z,7.73
2022-11-16T22:14:23.517Z,7.77
2022-11-16T22:16:51.532Z,7.73
2022-11-16T22:19:19.528Z,7.50
2022-11-16T22:21:48.933Z,8.83
2022-11-16T22:24:16.979Z,7.50
2022-11-16T22:26:45.200Z,7.57
2022-11-16T22:29:13.246Z,7.67
2022-11-16T22:31:41.266Z,7.73
2022-11-16T22:34:09.391Z,7.37
2022-11-16T22:36:37.417Z,8.03
2022-11-16T22:39:06.851Z,9.50
2022-11-16T22:41:35.015Z,8.83
2022-11-16T22:44:03.083Z,8.27
2022-11-16T22:46:31.131Z,7.80
2022-11-16T22:48:59.294Z,6.30
2022-11-16T22:51:28.673Z,8.73
2022-11-16T22:53:58.532Z,7.33
2022-11-16T22:56:28.777Z,8.17
2022-11-16T22:58:57.143Z,8.07
2022-11-16T23:01:25.612Z,7.90
2022-11-16T23:03:53.745Z,7.90
2022-11-16T23:06:21.808Z,7.97
2022-11-16T23:08:50.216Z,7.87
2022-11-16T23:11:37.643Z,8.50
2022-11-16T23:14:26.329Z,7.97
2022-11-16T23:16:54.519Z,8.50
2022-11-16T23:19:40.526Z,8.60
2022-11-16T23:22:30.682Z,7.27
2022-11-16T23:25:16.367Z,8.67
2022-11-16T23:27:51.976Z,7.23
2022-11-16T23:30:22.025Z,7.70
2022-11-16T23:32:50.580Z,7.57
2022-11-16T23:35:19.279Z,7.30
2022-11-16T23:37:55.482Z,8.03
2022-11-16T23:40:25.880Z,7.97
2022-11-16T23:43:12.204Z,7.83
2022-11-16T23:45:43.048Z,8.47
2022-11-16T23:48:12.412Z,6.93
2022-11-16T23:50:40.684Z,8.17
2022-11-16T23:53:10.055Z,9.30
2022-11-16T23:55:39.826Z,7.97
2022-11-16T23:58:12.223Z,9.00
